sensor_id;sensor_type;location;lat;lon;timestamp;noise_LAeq;noise_LA_min;noise_LA_max;noise_LA01;noise_LA95
49568;Laerm;35474;51.032;6.998;2023-11-21T00:02:21;53.36;37.32;67.11;;
49568;Laerm;35474;51.032;6.998;2023-11-21T00:04:48;57.02;39.21;66.86;;
49568;Laerm;35474;51.032;6.998;2023-11-21T00:07:15;56.90;38.67;70.13;;
49568;Laerm;35474;51.032;6.998;2023-11-21T00:09:41;61.23;37.88;71.71;;
49568;Laerm;35474;51.032;6.998;2023-11-21T00:12:08;50.80;37.70;64.62;;
49568;Laerm;35474;51.032;6.998;2023-11-21T00:14:37;59.86;37.52;72.10;;
49568;Laerm;35474;51.032;6.998;2023-11-21T00:17:05;59.98;38.81;71.86;;
49568;Laerm;35474;51.032;6.998;2023-11-21T00:19:32;51.31;37.88;66.60;;
49568;Laerm;35474;51.032;6.998;2023-11-21T00:21:59;52.05;37.12;65.72;;
49568;Laerm;35474;51.032;6.998;2023-11-21T00:24:26;59.25;38.81;71.52;;
49568;Laerm;35474;51.032;6.998;2023-11-21T00:26:52;54.96;39.70;68.07;;
49568;Laerm;35474;51.032;6.998;2023-11-21T00:29:19;54.43;39.92;74.24;;
49568;Laerm;35474;51.032;6.998;2023-11-21T00:31:46;50.57;36.91;82.13;;
49568;Laerm;35474;51.032;6.998;2023-11-21T00:34:15;60.12;37.12;74.45;;
49568;Laerm;35474;51.032;6.998;2023-11-21T00:36:44;41.83;37.88;57.05;;
49568;Laerm;35474;51.032;6.998;2023-11-21T00:39:10;41.64;36.91;53.48;;
49568;Laerm;35474;51.032;6.998;2023-11-21T00:41:38;46.78;38.02;59.79;;
49568;Laerm;35474;51.032;6.998;2023-11-21T00:44:05;56.84;38.81;70.39;;
49568;Laerm;35474;51.032;6.998;2023-11-21T00:46:32;56.58;38.81;72.74;;
49568;Laerm;35474;51.032;6.998;2023-11-21T00:48:59;56.76;38.81;68.61;;
49568;Laerm;35474;51.032;6.998;2023-11-21T00:51:26;42.39;38.95;59.70;;
49568;Laerm;35474;51.032;6.998;2023-11-21T00:53:52;49.60;38.37;68.04;;
49568;Laerm;35474;51.032;6.998;2023-11-21T00:56:19;57.20;39.58;73.01;;
49568;Laerm;35474;51.032;6.998;2023-11-21T01:00:35;57.86;38.67;68.95;;
49568;Laerm;35474;51.032;6.998;2023-11-21T01:03:01;41.11;38.47;44.54;;
49568;Laerm;35474;51.032;6.998;2023-11-21T01:05:28;41.36;38.52;44.89;;
49568;Laerm;35474;51.032;6.998;2023-11-21T01:07:56;55.33;38.95;70.55;;
49568;Laerm;35474;51.032;6.998;2023-11-21T01:10:22;44.02;39.34;52.84;;
49568;Laerm;35474;51.032;6.998;2023-11-21T01:12:49;52.37;39.08;66.19;;
49568;Laerm;35474;51.032;6.998;2023-11-21T01:15:15;53.46;39.58;68.45;;
49568;Laerm;35474;51.032;6.998;2023-11-21T01:17:42;53.99;38.21;71.30;;
49568;Laerm;35474;51.032;6.998;2023-11-21T01:20:09;50.39;39.08;61.95;;
49568;Laerm;35474;51.032;6.998;2023-11-21T01:22:40;42.02;38.52;51.48;;
49568;Laerm;35474;51.032;6.998;2023-11-21T01:25:07;55.30;39.34;67.75;;
49568;Laerm;35474;51.032;6.998;2023-11-21T01:27:34;44.20;38.37;53.99;;
49568;Laerm;35474;51.032;6.998;2023-11-21T01:30:04;46.98;38.05;72.08;;
49568;Laerm;35474;51.032;6.998;2023-11-21T01:32:31;41.98;38.67;56.19;;
49568;Laerm;35474;51.032;6.998;2023-11-21T01:34:57;44.89;38.81;66.26;;
49568;Laerm;35474;51.032;6.998;2023-11-21T01:37:24;41.29;38.21;46.91;;
49568;Laerm;35474;51.032;6.998;2023-11-21T01:39:54;41.38;38.37;43.49;;
49568;Laerm;35474;51.032;6.998;2023-11-21T01:42:24;46.57;37.12;60.29;;
49568;Laerm;35474;51.032;6.998;2023-11-21T01:44:50;53.90;37.88;64.95;;
49568;Laerm;35474;51.032;6.998;2023-11-21T01:47:17;42.35;38.05;48.36;;
49568;Laerm;35474;51.032;6.998;2023-11-21T01:49:45;41.47;38.52;47.02;;
49568;Laerm;35474;51.032;6.998;2023-11-21T01:52:12;43.35;38.81;53.57;;
49568;Laerm;35474;51.032;6.998;2023-11-21T01:54:40;41.77;38.21;59.17;;
49568;Laerm;35474;51.032;6.998;2023-11-21T01:57:07;51.14;39.46;66.05;;
49568;Laerm;35474;51.032;6.998;2023-11-21T01:59:35;41.77;38.37;46.38;;
49568;Laerm;35474;51.032;6.998;2023-11-21T02:02:06;51.84;38.05;66.18;;
49568;Laerm;35474;51.032;6.998;2023-11-21T02:04:33;58.18;37.52;77.22;;
49568;Laerm;35474;51.032;6.998;2023-11-21T02:07:00;61.00;38.95;78.20;;
49568;Laerm;35474;51.032;6.998;2023-11-21T02:09:27;41.55;38.81;43.24;;
49568;Laerm;35474;51.032;6.998;2023-11-21T02:11:56;52.86;38.52;68.24;;
49568;Laerm;35474;51.032;6.998;2023-11-21T02:14:27;58.89;38.05;73.28;;
49568;Laerm;35474;51.032;6.998;2023-11-21T02:16:55;52.50;38.52;70.09;;
49568;Laerm;35474;51.032;6.998;2023-11-21T02:19:23;46.17;39.81;56.96;;
49568;Laerm;35474;51.032;6.998;2023-11-21T02:21:52;52.21;39.81;72.49;;
49568;Laerm;35474;51.032;6.998;2023-11-21T02:24:23;50.00;39.92;65.35;;
49568;Laerm;35474;51.032;6.998;2023-11-21T02:26:50;42.00;39.21;44.47;;
49568;Laerm;35474;51.032;6.998;2023-11-21T02:29:20;44.44;38.95;57.28;;
49568;Laerm;35474;51.032;6.998;2023-11-21T02:31:54;54.95;39.92;70.04;;
49568;Laerm;35474;51.032;6.998;2023-11-21T02:34:22;56.94;39.08;73.71;;
49568;Laerm;35474;51.032;6.998;2023-11-21T02:36:49;57.50;40.43;73.51;;
49568;Laerm;35474;51.032;6.998;2023-11-21T02:39:15;56.89;39.21;69.34;;
49568;Laerm;35474;51.032;6.998;2023-11-21T02:41:48;52.07;39.21;66.75;;
49568;Laerm;35474;51.032;6.998;2023-11-21T02:44:15;41.69;38.52;60.61;;
49568;Laerm;35474;51.032;6.998;2023-11-21T02:46:42;41.42;38.37;44.07;;
49568;Laerm;35474;51.032;6.998;2023-11-21T02:49:09;41.90;39.08;53.77;;
49568;Laerm;35474;51.032;6.998;2023-11-21T02:51:38;51.02;39.46;66.67;;
49568;Laerm;35474;51.032;6.998;2023-11-21T02:54:05;56.35;38.81;69.92;;
49568;Laerm;35474;51.032;6.998;2023-11-21T02:56:34;46.29;39.08;58.59;;
49568;Laerm;35474;51.032;6.998;2023-11-21T02:59:01;59.13;38.81;75.96;;
49568;Laerm;35474;51.032;6.998;2023-11-21T03:01:27;42.67;39.11;52.38;;
49568;Laerm;35474;51.032;6.998;2023-11-21T03:03:54;52.92;39.34;67.46;;
49568;Laerm;35474;51.032;6.998;2023-11-21T03:06:22;50.30;39.08;64.32;;
49568;Laerm;35474;51.032;6.998;2023-11-21T03:08:49;42.03;37.32;45.43;;
49568;Laerm;35474;51.032;6.998;2023-11-21T03:11:16;54.34;39.34;69.22;;
49568;Laerm;35474;51.032;6.998;2023-11-21T03:13:43;43.05;38.60;57.13;;
49568;Laerm;35474;51.032;6.998;2023-11-21T03:16:10;55.48;39.34;68.72;;
49568;Laerm;35474;51.032;6.998;2023-11-21T03:18:37;49.04;38.67;67.67;;
49568;Laerm;35474;51.032;6.998;2023-11-21T03:21:05;55.49;39.70;74.69;;
49568;Laerm;35474;51.032;6.998;2023-11-21T03:23:32;54.14;39.34;67.14;;
49568;Laerm;35474;51.032;6.998;2023-11-21T03:25:58;55.82;38.95;69.49;;
49568;Laerm;35474;51.032;6.998;2023-11-21T03:28:26;44.43;39.58;59.56;;
49568;Laerm;35474;51.032;6.998;2023-11-21T03:30:56;58.23;40.03;72.01;;
49568;Laerm;35474;51.032;6.998;2023-11-21T03:33:23;50.54;39.34;64.06;;
49568;Laerm;35474;51.032;6.998;2023-11-21T03:35:49;54.75;39.58;70.34;;
49568;Laerm;35474;51.032;6.998;2023-11-21T03:38:16;58.19;39.81;69.30;;
49568;Laerm;35474;51.032;6.998;2023-11-21T03:40:42;58.10;40.53;68.33;;
49568;Laerm;35474;51.032;6.998;2023-11-21T03:43:09;58.41;41.41;69.96;;
49568;Laerm;35474;51.032;6.998;2023-11-21T03:45:35;43.60;40.98;55.90;;
49568;Laerm;35474;51.032;6.998;2023-11-21T03:48:02;59.36;42.35;70.66;;
49568;Laerm;35474;51.032;6.998;2023-11-21T03:50:29;47.87;39.89;65.42;;
49568;Laerm;35474;51.032;6.998;2023-11-21T03:52:56;56.33;40.62;71.12;;
49568;Laerm;35474;51.032;6.998;2023-11-21T03:55:22;56.20;40.23;68.72;;
49568;Laerm;35474;51.032;6.998;2023-11-21T03:57:52;50.91;39.92;65.27;;
49568;Laerm;35474;51.032;6.998;2023-11-21T04:00:18;61.10;39.92;73.60;;
49568;Laerm;35474;51.032;6.998;2023-11-21T04:02:46;60.23;41.30;72.10;;
49568;Laerm;35474;51.032;6.998;2023-11-21T04:05:14;60.05;40.62;71.08;;
49568;Laerm;35474;51.032;6.998;2023-11-21T04:07:40;60.35;42.47;70.08;;
49568;Laerm;35474;51.032;6.998;2023-11-21T04:10:07;58.50;41.14;69.84;;
49568;Laerm;35474;51.032;6.998;2023-11-21T04:12:39;59.47;40.98;69.76;;
49568;Laerm;35474;51.032;6.998;2023-11-21T04:15:06;60.85;41.30;74.25;;
49568;Laerm;35474;51.032;6.998;2023-11-21T04:17:35;59.04;41.61;69.27;;
49568;Laerm;35474;51.032;6.998;2023-11-21T04:20:04;60.99;41.96;71.20;;
49568;Laerm;35474;51.032;6.998;2023-11-21T04:22:44;59.57;41.96;70.48;;
49568;Laerm;35474;51.032;6.998;2023-11-21T04:25:14;58.18;40.71;69.86;;
49568;Laerm;35474;51.032;6.998;2023-11-21T04:27:44;59.01;40.62;72.51;;
49568;Laerm;35474;51.032;6.998;2023-11-21T04:30:12;60.93;43.81;72.80;;
49568;Laerm;35474;51.032;6.998;2023-11-21T04:32:39;61.88;44.51;71.10;;
49568;Laerm;35474;51.032;6.998;2023-11-21T04:35:06;64.11;44.90;74.49;;
49568;Laerm;35474;51.032;6.998;2023-11-21T04:37:32;62.31;42.98;73.34;;
49568;Laerm;35474;51.032;6.998;2023-11-21T04:39:59;62.04;42.22;72.43;;
49568;Laerm;35474;51.032;6.998;2023-11-21T04:42:25;64.93;43.04;74.41;;
49568;Laerm;35474;51.032;6.998;2023-11-21T04:44:52;63.96;45.60;73.61;;
49568;Laerm;35474;51.032;6.998;2023-11-21T04:47:18;64.47;44.65;71.61;;
49568;Laerm;35474;51.032;6.998;2023-11-21T04:49:46;64.26;42.59;72.51;;
49568;Laerm;35474;51.032;6.998;2023-11-21T04:52:16;65.69;41.82;76.25;;
49568;Laerm;35474;51.032;6.998;2023-11-21T04:54:44;62.89;42.65;71.90;;
49568;Laerm;35474;51.032;6.998;2023-11-21T04:57:10;61.48;43.09;72.20;;
49568;Laerm;35474;51.032;6.998;2023-11-21T04:59:37;62.83;41.82;71.69;;
49568;Laerm;35474;51.032;6.998;2023-11-21T05:02:03;62.11;42.22;72.02;;
49568;Laerm;35474;51.032;6.998;2023-11-21T05:04:31;59.92;42.59;68.80;;
49568;Laerm;35474;51.032;6.998;2023-11-21T05:06:58;61.28;41.30;71.34;;
49568;Laerm;35474;51.032;6.998;2023-11-21T05:09:24;62.56;42.22;70.58;;
49568;Laerm;35474;51.032;6.998;2023-11-21T05:11:51;62.91;44.39;74.82;;
49568;Laerm;35474;51.032;6.998;2023-11-21T05:14:19;63.83;44.27;73.37;;
49568;Laerm;35474;51.032;6.998;2023-11-21T05:16:46;65.46;51.54;73.92;;
49568;Laerm;35474;51.032;6.998;2023-11-21T05:19:13;62.47;43.19;69.56;;
49568;Laerm;35474;51.032;6.998;2023-11-21T05:21:42;63.72;45.39;71.84;;
49568;Laerm;35474;51.032;6.998;2023-11-21T05:24:09;64.14;51.30;73.44;;
49568;Laerm;35474;51.032;6.998;2023-11-21T05:26:35;64.51;45.86;71.89;;
49568;Laerm;35474;51.032;6.998;2023-11-21T05:29:02;65.27;50.41;73.71;;
49568;Laerm;35474;51.032;6.998;2023-11-21T05:31:29;67.31;53.75;74.74;;
49568;Laerm;35474;51.032;6.998;2023-11-21T05:33:55;63.67;44.23;72.22;;
49568;Laerm;35474;51.032;6.998;2023-11-21T05:36:22;64.48;42.98;74.01;;
49568;Laerm;35474;51.032;6.998;2023-11-21T05:38:48;65.41;51.35;72.13;;
49568;Laerm;35474;51.032;6.998;2023-11-21T05:41:15;63.65;45.86;71.97;;
49568;Laerm;35474;51.032;6.998;2023-11-21T05:43:41;65.13;43.54;75.08;;
49568;Laerm;35474;51.032;6.998;2023-11-21T05:46:08;67.25;52.05;74.55;;
49568;Laerm;35474;51.032;6.998;2023-11-21T05:48:35;66.46;51.85;73.18;;
49568;Laerm;35474;51.032;6.998;2023-11-21T05:51:06;65.05;47.81;74.66;;
49568;Laerm;35474;51.032;6.998;2023-11-21T05:53:33;67.54;52.85;75.22;;
49568;Laerm;35474;51.032;6.998;2023-11-21T05:56:00;63.27;45.36;70.71;;
49568;Laerm;35474;51.032;6.998;2023-11-21T05:58:27;64.81;45.89;73.24;;
49568;Laerm;35474;51.032;6.998;2023-11-21T06:00:54;67.33;58.18;76.86;;
49568;Laerm;35474;51.032;6.998;2023-11-21T06:03:21;65.52;51.78;72.01;;
49568;Laerm;35474;51.032;6.998;2023-11-21T06:05:48;65.90;47.93;72.03;;
49568;Laerm;35474;51.032;6.998;2023-11-21T06:08:15;64.61;51.89;72.31;;
49568;Laerm;35474;51.032;6.998;2023-11-21T06:10:43;65.01;49.57;72.03;;
49568;Laerm;35474;51.032;6.998;2023-11-21T06:13:10;66.56;48.23;74.33;;
49568;Laerm;35474;51.032;6.998;2023-11-21T06:15:37;66.15;44.35;73.94;;
49568;Laerm;35474;51.032;6.998;2023-11-21T06:18:03;66.51;47.16;72.00;;
49568;Laerm;35474;51.032;6.998;2023-11-21T06:20:30;64.79;45.11;70.89;;
49568;Laerm;35474;51.032;6.998;2023-11-21T06:22:57;66.72;43.54;73.41;;
49568;Laerm;35474;51.032;6.998;2023-11-21T06:25:25;65.58;49.40;72.58;;
49568;Laerm;35474;51.032;6.998;2023-11-21T06:27:52;65.14;53.65;71.48;;
49568;Laerm;35474;51.032;6.998;2023-11-21T06:30:20;66.74;57.39;77.62;;
49568;Laerm;35474;51.032;6.998;2023-11-21T06:32:48;65.29;55.64;73.20;;
49568;Laerm;35474;51.032;6.998;2023-11-21T06:35:15;64.29;49.50;72.03;;
49568;Laerm;35474;51.032;6.998;2023-11-21T06:37:44;65.41;48.48;73.42;;
49568;Laerm;35474;51.032;6.998;2023-11-21T06:40:17;64.91;52.91;72.92;;
49568;Laerm;35474;51.032;6.998;2023-11-21T06:42:47;66.59;49.06;76.51;;
49568;Laerm;35474;51.032;6.998;2023-11-21T06:45:15;64.18;49.66;72.69;;
49568;Laerm;35474;51.032;6.998;2023-11-21T06:47:42;67.09;48.64;81.98;;
49568;Laerm;35474;51.032;6.998;2023-11-21T06:50:09;64.33;55.81;71.90;;
49568;Laerm;35474;51.032;6.998;2023-11-21T06:52:37;65.07;52.85;71.89;;
49568;Laerm;35474;51.032;6.998;2023-11-21T06:55:08;63.25;49.29;74.28;;
49568;Laerm;35474;51.032;6.998;2023-11-21T06:57:36;66.12;52.54;91.45;;
49568;Laerm;35474;51.032;6.998;2023-11-21T07:00:04;65.29;47.72;74.22;;
49568;Laerm;35474;51.032;6.998;2023-11-21T07:02:31;64.32;50.99;75.08;;
49568;Laerm;35474;51.032;6.998;2023-11-21T07:04:58;64.18;52.31;76.54;;
49568;Laerm;35474;51.032;6.998;2023-11-21T07:07:24;62.78;53.17;78.04;;
49568;Laerm;35474;51.032;6.998;2023-11-21T07:09:51;64.27;54.57;73.37;;
49568;Laerm;35474;51.032;6.998;2023-11-21T07:12:18;64.98;51.19;71.69;;
49568;Laerm;35474;51.032;6.998;2023-11-21T07:14:44;65.61;50.40;72.24;;
49568;Laerm;35474;51.032;6.998;2023-11-21T07:17:11;65.44;49.06;72.03;;
49568;Laerm;35474;51.032;6.998;2023-11-21T07:19:39;66.20;50.62;73.14;;
49568;Laerm;35474;51.032;6.998;2023-11-21T07:22:05;66.41;55.12;72.58;;
49568;Laerm;35474;51.032;6.998;2023-11-21T07:24:32;67.05;46.71;72.26;;
49568;Laerm;35474;51.032;6.998;2023-11-21T07:26:58;65.86;48.18;73.09;;
49568;Laerm;35474;51.032;6.998;2023-11-21T07:32:34;67.76;53.60;74.62;;
49568;Laerm;35474;51.032;6.998;2023-11-21T07:35:01;66.71;53.96;76.28;;
49568;Laerm;35474;51.032;6.998;2023-11-21T07:37:28;65.54;57.22;72.11;;
49568;Laerm;35474;51.032;6.998;2023-11-21T07:39:55;66.30;48.63;75.36;;
49568;Laerm;35474;51.032;6.998;2023-11-21T07:42:23;66.25;50.95;72.17;;
49568;Laerm;35474;51.032;6.998;2023-11-21T07:44:50;64.95;47.96;74.29;;
49568;Laerm;35474;51.032;6.998;2023-11-21T07:47:18;66.50;51.82;81.05;;
49568;Laerm;35474;51.032;6.998;2023-11-21T07:49:45;66.01;51.19;73.76;;
49568;Laerm;35474;51.032;6.998;2023-11-21T07:52:13;66.17;57.29;74.31;;
49568;Laerm;35474;51.032;6.998;2023-11-21T07:54:42;68.55;61.81;77.65;;
49568;Laerm;35474;51.032;6.998;2023-11-21T07:57:09;66.50;50.43;73.98;;
49568;Laerm;35474;51.032;6.998;2023-11-21T07:59:40;66.10;44.03;75.33;;
49568;Laerm;35474;51.032;6.998;2023-11-21T08:02:07;65.31;54.50;73.62;;
49568;Laerm;35474;51.032;6.998;2023-11-21T08:04:34;66.77;52.19;74.63;;
49568;Laerm;35474;51.032;6.998;2023-11-21T08:07:02;65.53;52.36;72.81;;
49568;Laerm;35474;51.032;6.998;2023-11-21T08:09:30;63.95;45.30;69.89;;
49568;Laerm;35474;51.032;6.998;2023-11-21T08:11:58;65.40;48.95;70.68;;
49568;Laerm;35474;51.032;6.998;2023-11-21T08:14:27;65.36;54.26;73.02;;
49568;Laerm;35474;51.032;6.998;2023-11-21T08:16:54;64.29;49.43;74.02;;
49568;Laerm;35474;51.032;6.998;2023-11-21T08:19:38;65.86;57.30;75.20;;
49568;Laerm;35474;51.032;6.998;2023-11-21T08:22:04;64.60;45.94;79.98;;
49568;Laerm;35474;51.032;6.998;2023-11-21T08:24:34;64.41;46.52;74.61;;
49568;Laerm;35474;51.032;6.998;2023-11-21T08:27:00;67.61;51.13;83.67;;
49568;Laerm;35474;51.032;6.998;2023-11-21T08:29:27;63.06;45.94;72.80;;
49568;Laerm;35474;51.032;6.998;2023-11-21T08:31:55;66.88;50.60;76.13;;
49568;Laerm;35474;51.032;6.998;2023-11-21T08:34:29;65.73;50.48;72.20;;
49568;Laerm;35474;51.032;6.998;2023-11-21T08:36:57;64.14;44.39;74.48;;
49568;Laerm;35474;51.032;6.998;2023-11-21T08:39:24;65.82;48.39;77.46;;
49568;Laerm;35474;51.032;6.998;2023-11-21T08:41:50;64.92;46.38;75.60;;
49568;Laerm;35474;51.032;6.998;2023-11-21T08:44:19;65.06;49.16;71.72;;
49568;Laerm;35474;51.032;6.998;2023-11-21T08:46:47;66.39;48.76;81.57;;
49568;Laerm;35474;51.032;6.998;2023-11-21T08:49:13;66.36;50.32;75.00;;
49568;Laerm;35474;51.032;6.998;2023-11-21T08:51:41;65.77;55.46;74.93;;
49568;Laerm;35474;51.032;6.998;2023-11-21T08:54:10;66.34;52.54;73.25;;
49568;Laerm;35474;51.032;6.998;2023-11-21T08:56:38;66.58;55.47;74.65;;
49568;Laerm;35474;51.032;6.998;2023-11-21T08:59:10;65.77;51.60;77.41;;
49568;Laerm;35474;51.032;6.998;2023-11-21T09:01:38;66.37;53.55;72.99;;
49568;Laerm;35474;51.032;6.998;2023-11-21T09:04:05;67.86;53.54;77.81;;
49568;Laerm;35474;51.032;6.998;2023-11-21T09:06:32;65.90;55.61;76.87;;
49568;Laerm;35474;51.032;6.998;2023-11-21T09:08:59;65.65;51.76;73.97;;
49568;Laerm;35474;51.032;6.998;2023-11-21T09:11:25;66.17;45.11;72.43;;
49568;Laerm;35474;51.032;6.998;2023-11-21T09:13:57;65.23;52.78;72.75;;
49568;Laerm;35474;51.032;6.998;2023-11-21T09:16:24;69.40;54.68;86.33;;
49568;Laerm;35474;51.032;6.998;2023-11-21T09:18:51;68.08;54.59;80.99;;
49568;Laerm;35474;51.032;6.998;2023-11-21T09:21:18;67.41;54.29;75.80;;
49568;Laerm;35474;51.032;6.998;2023-11-21T09:23:44;65.32;49.39;72.44;;
49568;Laerm;35474;51.032;6.998;2023-11-21T09:26:12;64.36;54.13;70.75;;
49568;Laerm;35474;51.032;6.998;2023-11-21T09:28:38;64.98;46.55;74.99;;
49568;Laerm;35474;51.032;6.998;2023-11-21T09:31:05;66.69;49.78;74.60;;
49568;Laerm;35474;51.032;6.998;2023-11-21T09:33:35;65.76;50.65;72.60;;
49568;Laerm;35474;51.032;6.998;2023-11-21T09:36:01;65.41;50.37;72.27;;
49568;Laerm;35474;51.032;6.998;2023-11-21T09:38:31;66.16;55.04;77.37;;
49568;Laerm;35474;51.032;6.998;2023-11-21T09:40:58;65.54;46.48;74.91;;
49568;Laerm;35474;51.032;6.998;2023-11-21T09:43:27;80.60;52.54;99.20;;
49568;Laerm;35474;51.032;6.998;2023-11-21T09:46:00;66.55;55.07;75.26;;
49568;Laerm;35474;51.032;6.998;2023-11-21T09:48:30;64.71;46.69;72.23;;
49568;Laerm;35474;51.032;6.998;2023-11-21T09:50:57;66.44;54.18;73.35;;
49568;Laerm;35474;51.032;6.998;2023-11-21T09:53:27;67.62;56.07;81.15;;
49568;Laerm;35474;51.032;6.998;2023-11-21T09:55:56;66.18;51.68;72.69;;
49568;Laerm;35474;51.032;6.998;2023-11-21T09:58:23;67.63;60.64;76.76;;
49568;Laerm;35474;51.032;6.998;2023-11-21T10:00:53;66.58;49.03;77.34;;
49568;Laerm;35474;51.032;6.998;2023-11-21T10:03:20;66.20;49.73;74.10;;
49568;Laerm;35474;51.032;6.998;2023-11-21T10:05:50;65.66;43.68;74.10;;
49568;Laerm;35474;51.032;6.998;2023-11-21T10:08:17;66.35;54.78;75.67;;
49568;Laerm;35474;51.032;6.998;2023-11-21T10:10:45;66.69;54.52;76.29;;
49568;Laerm;35474;51.032;6.998;2023-11-21T10:13:13;65.00;46.40;73.41;;
49568;Laerm;35474;51.032;6.998;2023-11-21T10:15:43;65.57;47.86;71.65;;
49568;Laerm;35474;51.032;6.998;2023-11-21T10:18:15;66.49;57.71;73.83;;
49568;Laerm;35474;51.032;6.998;2023-11-21T10:20:43;66.13;54.76;74.87;;
49568;Laerm;35474;51.032;6.998;2023-11-21T10:23:13;63.90;46.76;72.93;;
49568;Laerm;35474;51.032;6.998;2023-11-21T10:25:42;66.31;45.01;74.64;;
49568;Laerm;35474;51.032;6.998;2023-11-21T10:28:09;64.55;49.06;72.41;;
49568;Laerm;35474;51.032;6.998;2023-11-21T10:30:38;66.71;45.75;78.33;;
49568;Laerm;35474;51.032;6.998;2023-11-21T10:33:06;65.58;44.97;73.79;;
49568;Laerm;35474;51.032;6.998;2023-11-21T10:38:08;65.55;51.21;72.05;;
49568;Laerm;35474;51.032;6.998;2023-11-21T10:40:40;65.53;49.72;72.81;;
49568;Laerm;35474;51.032;6.998;2023-11-21T10:43:08;67.11;45.60;76.03;;
49568;Laerm;35474;51.032;6.998;2023-11-21T10:45:43;66.15;52.91;76.52;;
49568;Laerm;35474;51.032;6.998;2023-11-21T10:48:14;66.04;55.63;72.32;;
49568;Laerm;35474;51.032;6.998;2023-11-21T10:50:45;66.24;49.27;73.69;;
49568;Laerm;35474;51.032;6.998;2023-11-21T10:53:12;67.25;51.40;72.42;;
49568;Laerm;35474;51.032;6.998;2023-11-21T10:55:40;65.61;51.29;73.44;;
49568;Laerm;35474;51.032;6.998;2023-11-21T10:58:07;68.38;54.45;86.27;;
49568;Laerm;35474;51.032;6.998;2023-11-21T11:00:33;65.84;55.70;71.33;;
49568;Laerm;35474;51.032;6.998;2023-11-21T11:03:02;64.43;53.61;75.86;;
49568;Laerm;35474;51.032;6.998;2023-11-21T11:05:31;68.74;57.86;77.01;;
49568;Laerm;35474;51.032;6.998;2023-11-21T11:08:08;66.77;51.53;82.33;;
49568;Laerm;35474;51.032;6.998;2023-11-21T11:10:37;64.72;50.07;81.25;;
49568;Laerm;35474;51.032;6.998;2023-11-21T11:13:04;65.67;51.08;74.28;;
49568;Laerm;35474;51.032;6.998;2023-11-21T11:15:35;64.52;44.11;75.50;;
49568;Laerm;35474;51.032;6.998;2023-11-21T11:18:02;66.70;53.71;82.84;;
49568;Laerm;35474;51.032;6.998;2023-11-21T11:20:34;65.91;52.68;74.57;;
49568;Laerm;35474;51.032;6.998;2023-11-21T11:25:38;67.59;58.65;74.30;;
49568;Laerm;35474;51.032;6.998;2023-11-21T11:28:20;64.70;50.40;70.82;;
49568;Laerm;35474;51.032;6.998;2023-11-21T11:31:09;66.33;47.59;73.82;;
49568;Laerm;35474;51.032;6.998;2023-11-21T11:33:57;64.97;50.84;71.19;;
49568;Laerm;35474;51.032;6.998;2023-11-21T11:36:29;65.74;46.25;73.18;;
49568;Laerm;35474;51.032;6.998;2023-11-21T11:38:57;65.61;46.20;70.67;;
49568;Laerm;35474;51.032;6.998;2023-11-21T11:41:31;66.49;50.57;73.83;;
49568;Laerm;35474;51.032;6.998;2023-11-21T11:44:03;64.88;50.12;72.55;;
49568;Laerm;35474;51.032;6.998;2023-11-21T11:46:44;68.04;55.55;73.92;;
49568;Laerm;35474;51.032;6.998;2023-11-21T11:49:27;67.84;52.57;78.65;;
49568;Laerm;35474;51.032;6.998;2023-11-21T11:55:00;67.01;54.54;77.38;;
49568;Laerm;35474;51.032;6.998;2023-11-21T11:57:29;68.58;58.74;79.31;;
49568;Laerm;35474;51.032;6.998;2023-11-21T12:00:15;67.30;57.37;86.13;;
49568;Laerm;35474;51.032;6.998;2023-11-21T12:02:56;65.31;54.36;77.55;;
49568;Laerm;35474;51.032;6.998;2023-11-21T12:05:24;66.45;55.83;82.43;;
49568;Laerm;35474;51.032;6.998;2023-11-21T12:07:55;69.04;55.23;81.40;;
49568;Laerm;35474;51.032;6.998;2023-11-21T12:10:26;74.00;66.85;85.32;;
49568;Laerm;35474;51.032;6.998;2023-11-21T12:13:02;74.66;63.82;88.96;;
49568;Laerm;35474;51.032;6.998;2023-11-21T12:15:29;65.72;54.84;75.20;;
49568;Laerm;35474;51.032;6.998;2023-11-21T12:17:57;65.34;54.97;70.67;;
49568;Laerm;35474;51.032;6.998;2023-11-21T12:20:26;64.90;45.83;74.37;;
49568;Laerm;35474;51.032;6.998;2023-11-21T12:22:54;66.43;54.45;72.06;;
49568;Laerm;35474;51.032;6.998;2023-11-21T12:25:23;65.91;48.46;78.42;;
49568;Laerm;35474;51.032;6.998;2023-11-21T12:27:53;65.79;50.52;81.70;;
49568;Laerm;35474;51.032;6.998;2023-11-21T12:30:23;64.27;45.51;79.50;;
49568;Laerm;35474;51.032;6.998;2023-11-21T12:32:54;65.77;51.73;74.04;;
49568;Laerm;35474;51.032;6.998;2023-11-21T12:35:24;65.50;51.26;75.00;;
49568;Laerm;35474;51.032;6.998;2023-11-21T12:37:51;65.16;51.82;72.08;;
49568;Laerm;35474;51.032;6.998;2023-11-21T12:40:19;65.90;54.64;73.66;;
49568;Laerm;35474;51.032;6.998;2023-11-21T12:42:52;65.84;46.55;74.70;;
49568;Laerm;35474;51.032;6.998;2023-11-21T12:47:51;66.01;51.40;77.85;;
49568;Laerm;35474;51.032;6.998;2023-11-21T12:50:19;65.23;57.14;78.12;;
49568;Laerm;35474;51.032;6.998;2023-11-21T12:52:53;66.72;57.58;78.02;;
49568;Laerm;35474;51.032;6.998;2023-11-21T12:55:23;68.08;57.92;81.97;;
49568;Laerm;35474;51.032;6.998;2023-11-21T12:57:54;68.49;60.82;81.16;;
49568;Laerm;35474;51.032;6.998;2023-11-21T13:00:45;67.02;55.20;81.94;;
49568;Laerm;35474;51.032;6.998;2023-11-21T13:03:15;67.31;54.79;78.97;;
49568;Laerm;35474;51.032;6.998;2023-11-21T13:05:54;67.99;59.89;86.06;;
49568;Laerm;35474;51.032;6.998;2023-11-21T13:08:24;68.01;58.08;93.23;;
49568;Laerm;35474;51.032;6.998;2023-11-21T13:10:54;70.39;57.12;103.13;;
49568;Laerm;35474;51.032;6.998;2023-11-21T13:13:28;82.46;56.80;99.13;;
49568;Laerm;35474;51.032;6.998;2023-11-21T13:16:02;68.31;56.84;80.54;;
49568;Laerm;35474;51.032;6.998;2023-11-21T13:18:34;69.28;58.31;83.88;;
49568;Laerm;35474;51.032;6.998;2023-11-21T13:21:04;67.00;53.61;80.38;;
49568;Laerm;35474;51.032;6.998;2023-11-21T13:23:36;66.57;58.50;74.59;;
49568;Laerm;35474;51.032;6.998;2023-11-21T13:26:04;66.54;60.00;78.30;;
49568;Laerm;35474;51.032;6.998;2023-11-21T13:28:33;65.63;53.12;74.42;;
49568;Laerm;35474;51.032;6.998;2023-11-21T13:31:04;65.63;51.79;73.19;;
49568;Laerm;35474;51.032;6.998;2023-11-21T13:33:48;76.73;53.66;98.49;;
49568;Laerm;35474;51.032;6.998;2023-11-21T13:36:23;66.01;53.55;73.63;;
49568;Laerm;35474;51.032;6.998;2023-11-21T13:38:51;64.82;52.06;74.28;;
49568;Laerm;35474;51.032;6.998;2023-11-21T13:41:21;64.90;50.64;72.38;;
49568;Laerm;35474;51.032;6.998;2023-11-21T13:43:58;64.72;52.51;71.98;;
49568;Laerm;35474;51.032;6.998;2023-11-21T13:46:45;66.90;50.77;74.85;;
49568;Laerm;35474;51.032;6.998;2023-11-21T13:49:13;65.69;52.91;74.46;;
49568;Laerm;35474;51.032;6.998;2023-11-21T13:51:41;66.37;49.72;72.09;;
49568;Laerm;35474;51.032;6.998;2023-11-21T13:54:11;65.75;54.79;76.08;;
49568;Laerm;35474;51.032;6.998;2023-11-21T13:56:38;67.26;52.60;80.77;;
49568;Laerm;35474;51.032;6.998;2023-11-21T13:59:06;67.88;52.30;86.04;;
49568;Laerm;35474;51.032;6.998;2023-11-21T14:01:46;65.78;49.16;72.72;;
49568;Laerm;35474;51.032;6.998;2023-11-21T14:04:23;85.29;57.98;100.74;;
49568;Laerm;35474;51.032;6.998;2023-11-21T14:06:59;65.51;57.17;72.87;;
49568;Laerm;35474;51.032;6.998;2023-11-21T14:09:38;65.56;46.40;74.62;;